KLMT/LMT METAR and TAF weather

Enter ICAO airport designator
Station Type Date Time Source
KLMT METAR 2020/09/30 16:53 UTC NOAA

KLMT 301653Z VRB03KT 10SM CLR 15/06 A3036 RMK AO2 SLP258 T01500056


Station Type Date Time Source
KLMT Decoded METAR 2020/09/30 16:53 UTC NOAA

KLAMATH FALLS INTERNATIONAL AIRPORT, OR, United States (KLMT) 42-09N 121-43W 1246M
Sep 30, 2020 - 12:53 PM EDT / 2020.09.30 1653 UTC
Wind: Variable at 3 MPH (3 KT):0
Visibility: 10 mile(s):0
Sky conditions: clear
Temperature: 59.0 F (15.0 C)
Dew Point: 42.1 F (5.6 C)
Relative Humidity: 53%
Pressure (altimeter): 30.36 in. Hg (1028 hPa)
ob: KLMT 301653Z VRB03KT 10SM CLR 15/06 A3036 RMK AO2 SLP258 T01500056
cycle: 17

Station Type Date Time Source
KLMT TAF 2020/09/30 12:36 UTC NOAA

TAF KLMT 301133Z 3012/0112 VRB04KT P6SM SKC

Example: see airport list